Time;durP1;ratioP1;P1;durP2;ratioP2;P2;SDS_P1;SDS_P2;PMS_P1;PMS_P2;Temp;Humidity;BMP_temperature;BMP_pressure;BME280_temperature;BME280_humidity;BME280_pressure;Samples;Min_cycle;Max_cycle;Signal;HPM_P1;HPM_P2
2023/03/03 00:01:31;;;;;;;;;;;;;;;4.43;52.51;101187.66;4997930;28;6795;-75
2023/03/03 00:03:58;;;;;;;;;;;;;;;4.44;52.48;101185.25;5005143;28;8517;-75
2023/03/03 00:06:24;;;;;;;;;;;;;;;4.46;52.70;101193.03;5013085;28;6800;-78
2023/03/03 00:08:50;;;;;;;;;;;;;;;4.45;52.46;101192.13;5012048;28;6812;-77
2023/03/03 00:11:16;;;;;;;;;;;;;;;4.45;52.63;101194.66;5009092;28;6942;-75
2023/03/03 00:13:55;;;;;;;;;;;;;;;4.44;53.07;101192.88;5020693;28;6772;-75
2023/03/03 00:16:25;;;;;;;;;;;;;;;4.43;52.55;101188.56;5006715;28;6884;-77
2023/03/03 00:18:52;;;;;;;;;;;;;;;4.42;52.89;101184.25;5014355;28;6820;-78
2023/03/03 00:21:25;;;;;;;;;;;;;;;4.42;52.79;101178.28;4994229;28;8509;-77
2023/03/03 00:23:52;;;;;;;;;;;;;;;4.41;53.54;101189.19;5014976;28;6973;-78
2023/03/03 00:26:40;;;;;;;;;;;;;;;4.39;52.82;101193.25;4998664;28;9502;-75
2023/03/03 00:29:34;;;;;;;;;;;;;;;4.36;53.55;101191.31;5015733;28;7056;-78
2023/03/03 00:32:19;;;;;;;;;;;;;;;4.35;53.59;101199.69;5015095;28;6899;-78
2023/03/03 00:34:44;;;;;;;;;;;;;;;4.33;53.74;101202.84;5018609;28;7316;-76
2023/03/03 00:37:39;;;;;;;;;;;;;;;4.31;52.76;101190.94;5018054;28;6940;-76
2023/03/03 00:40:15;;;;;;;;;;;;;;;4.27;53.72;101188.91;5015703;28;8441;-76
2023/03/03 00:42:53;;;;;;;;;;;;;;;4.23;52.82;101191.91;5014958;28;6800;-78
2023/03/03 00:45:30;;;;;;;;;;;;;;;4.16;52.76;101197.25;5031088;28;6888;-75
2023/03/03 00:47:57;;;;;;;;;;;;;;;4.12;53.28;101203.69;5030222;28;7892;-75
2023/03/03 00:50:42;;;;;;;;;;;;;;;4.09;53.72;101205.06;5016098;28;7227;-76
2023/03/03 00:53:17;;;;;;;;;;;;;;;4.06;53.46;101205.69;5015839;28;10072;-74
2023/03/03 00:55:45;;;;;;;;;;;;;;;4.07;53.71;101212.53;5014521;28;6791;-78
2023/03/03 00:58:12;;;;;;;;;;;;;;;4.03;53.96;101219.00;5014818;28;7076;-77
2023/03/03 01:00:39;;;;;;;;;;;;;;;4.02;53.37;101212.13;5012500;28;6808;-78
2023/03/03 01:03:18;;;;;;;;;;;;;;;4.03;53.65;101219.00;5018209;28;6918;-75
2023/03/03 01:05:44;;;;;;;;;;;;;;;4.05;53.49;101215.69;5025145;28;6800;-74
2023/03/03 01:08:11;;;;;;;;;;;;;;;4.06;54.27;101208.22;5010300;28;8565;-77
2023/03/03 01:10:49;;;;;;;;;;;;;;;4.11;54.54;101219.69;5014572;28;6811;-78
2023/03/03 01:13:17;;;;;;;;;;;;;;;4.17;54.08;101222.72;5022032;28;6800;-77
2023/03/03 01:15:43;;;;;;;;;;;;;;;4.24;54.87;101221.59;5014113;28;6807;-75
2023/03/03 01:18:13;;;;;;;;;;;;;;;4.33;54.95;101218.09;5012533;28;7242;-77
2023/03/03 01:20:40;;;;;;;;;;;;;;;4.41;54.82;101227.25;5027532;28;6807;-78
2023/03/03 01:23:06;;;;;;;;;;;;;;;4.48;55.03;101228.66;4998990;28;8801;-76
2023/03/03 01:25:33;;;;;;;;;;;;;;;4.56;54.42;101226.06;5030277;28;6949;-77
2023/03/03 01:27:59;;;;;;;;;;;;;;;4.63;54.93;101224.00;5015975;28;6967;-78
2023/03/03 01:30:25;;;;;;;;;;;;;;;4.67;55.33;101218.44;5013202;28;6988;-77
2023/03/03 01:32:51;;;;;;;;;;;;;;;4.70;54.54;101212.00;5014974;28;8342;-78
2023/03/03 01:35:17;;;;;;;;;;;;;;;4.73;55.33;101216.41;5015115;28;7653;-77
2023/03/03 01:37:43;;;;;;;;;;;;;;;4.77;55.06;101222.66;4995754;28;7466;-78
2023/03/03 01:40:20;;;;;;;;;;;;;;;4.79;55.06;101228.78;5034866;28;6955;-75
2023/03/03 01:42:45;;;;;;;;;;;;;;;4.77;54.52;101226.09;5015412;28;6804;-77
2023/03/03 01:45:24;;;;;;;;;;;;;;;4.74;55.32;101223.31;5014638;28;7020;-77
2023/03/03 01:48:18;;;;;;;;;;;;;;;4.73;55.21;101227.47;5016317;28;6811;-78
2023/03/03 01:51:00;;;;;;;;;;;;;;;4.74;55.76;101230.91;5011211;28;8456;-75
2023/03/03 01:53:42;;;;;;;;;;;;;;;4.77;55.49;101233.72;5031007;28;7175;-78
2023/03/03 01:56:09;;;;;;;;;;;;;;;4.81;55.24;101235.72;5024765;28;6816;-77
2023/03/03 01:58:42;;;;;;;;;;;;;;;4.84;55.68;101233.47;5000187;28;7258;-78
2023/03/03 02:01:16;;;;;;;;;;;;;;;4.89;54.93;101223.69;5023950;28;6803;-77
2023/03/03 02:03:43;;;;;;;;;;;;;;;4.93;55.86;101225.72;5015281;28;6811;-77
2023/03/03 02:06:18;;;;;;;;;;;;;;;4.94;55.03;101224.97;5028042;28;6800;-76
2023/03/03 02:08:52;;;;;;;;;;;;;;;4.95;55.57;101218.25;5014794;28;6887;-78
2023/03/03 02:11:21;;;;;;;;;;;;;;;4.95;54.78;101223.31;5015973;28;6968;-77
2023/03/03 02:13:47;;;;;;;;;;;;;;;4.95;55.48;101219.13;5018926;28;6946;-77
2023/03/03 02:16:12;;;;;;;;;;;;;;;4.96;54.99;101223.44;5002203;28;7127;-77
2023/03/03 02:18:38;;;;;;;;;;;;;;;4.96;55.68;101225.09;4994495;28;8507;-76
2023/03/03 02:21:16;;;;;;;;;;;;;;;4.97;55.12;101229.41;5008031;28;6851;-75
2023/03/03 02:24:17;;;;;;;;;;;;;;;4.98;55.25;101223.56;4991889;28;8668;-76
2023/03/03 02:26:45;;;;;;;;;;;;;;;4.98;55.41;101226.13;5010983;28;7261;-76
2023/03/03 02:29:10;;;;;;;;;;;;;;;4.99;55.39;101238.06;4997567;28;8743;-77
2023/03/03 02:31:37;;;;;;;;;;;;;;;4.98;55.21;101223.56;5013836;28;7169;-77
2023/03/03 02:34:03;;;;;;;;;;;;;;;5.00;55.66;101229.66;5025327;28;8520;-78
2023/03/03 02:36:36;;;;;;;;;;;;;;;5.02;55.04;101233.22;5012209;28;6811;-75
2023/03/03 02:39:20;;;;;;;;;;;;;;;5.04;54.98;101231.72;5013015;28;6974;-77
2023/03/03 02:41:59;;;;;;;;;;;;;;;5.05;55.57;101236.03;5008594;28;7700;-78
2023/03/03 02:44:29;;;;;;;;;;;;;;;5.05;55.16;101236.03;5014931;28;6863;-75
2023/03/03 02:46:57;;;;;;;;;;;;;;;5.05;54.72;101241.13;5008622;28;6819;-74
2023/03/03 02:49:31;;;;;;;;;;;;;;;5.05;54.96;101241.13;5010864;28;6807;-75
2023/03/03 02:51:58;;;;;;;;;;;;;;;5.04;54.81;101241.88;5025910;28;8552;-77
2023/03/03 02:54:29;;;;;;;;;;;;;;;5.06;55.02;101242.00;5012477;28;8009;-78
2023/03/03 02:56:56;;;;;;;;;;;;;;;5.06;54.83;101247.97;5012806;28;6828;-76
2023/03/03 02:59:22;;;;;;;;;;;;;;;5.06;55.52;101232.72;5003404;28;8510;-78
2023/03/03 03:01:49;;;;;;;;;;;;;;;5.07;55.68;101234.50;5011950;28;8610;-78
2023/03/03 03:04:19;;;;;;;;;;;;;;;5.06;55.13;101245.44;5014633;28;8610;-78
2023/03/03 03:06:46;;;;;;;;;;;;;;;5.05;55.14;101246.19;5010560;28;7037;-77
2023/03/03 03:09:14;;;;;;;;;;;;;;;5.07;55.16;101248.84;5012390;28;6864;-78
2023/03/03 03:11:41;;;;;;;;;;;;;;;5.07;54.76;101249.75;5013202;28;7159;-77
2023/03/03 03:14:10;;;;;;;;;;;;;;;5.06;54.86;101253.06;5010281;28;6815;-78
2023/03/03 03:16:36;;;;;;;;;;;;;;;5.06;54.97;101260.69;4997084;28;6982;-78
2023/03/03 03:19:03;;;;;;;;;;;;;;;5.04;55.13;101249.50;5013237;28;6808;-77
2023/03/03 03:21:30;;;;;;;;;;;;;;;5.04;55.09;101249.50;5009910;28;7174;-74
2023/03/03 03:23:56;;;;;;;;;;;;;;;5.05;55.12;101251.28;5017920;28;8623;-77
2023/03/03 03:26:22;;;;;;;;;;;;;;;5.10;55.55;101265.25;5016210;28;6791;-77
2023/03/03 03:28:49;;;;;;;;;;;;;;;5.10;55.77;101255.09;5006035;28;6953;-77
2023/03/03 03:31:17;;;;;;;;;;;;;;;5.10;55.11;101257.63;5014115;28;7331;-77
2023/03/03 03:33:43;;;;;;;;;;;;;;;5.10;55.62;101251.66;5028587;28;7215;-78
2023/03/03 03:36:09;;;;;;;;;;;;;;;5.12;55.14;101257.75;5010202;28;6847;-76
2023/03/03 03:38:36;;;;;;;;;;;;;;;5.11;55.51;101256.00;5013005;28;7149;-77
2023/03/03 03:41:04;;;;;;;;;;;;;;;5.11;55.54;101256.84;5028935;28;6795;-78
2023/03/03 03:43:30;;;;;;;;;;;;;;;5.12;55.56;101260.31;5012915;28;7003;-75
2023/03/03 03:45:56;;;;;;;;;;;;;;;5.14;55.57;101257.13;5026907;28;6791;-75
2023/03/03 03:48:21;;;;;;;;;;;;;;;5.13;54.89;101257.91;5010904;28;6783;-75
2023/03/03 03:50:48;;;;;;;;;;;;;;;5.12;55.15;101256.13;5013467;28;6799;-75
2023/03/03 03:53:15;;;;;;;;;;;;;;;5.13;55.13;101259.53;5009167;28;7310;-75
2023/03/03 03:55:41;;;;;;;;;;;;;;;5.12;55.45;101273.91;5011999;28;6808;-75
2023/03/03 03:58:10;;;;;;;;;;;;;;;5.12;55.70;101262.84;5013129;28;6791;-75
2023/03/03 04:00:38;;;;;;;;;;;;;;;5.10;54.96;101260.16;5011162;28;6884;-74
2023/03/03 04:03:04;;;;;;;;;;;;;;;5.09;55.14;101258.38;5018647;28;7377;-74
2023/03/03 04:05:29;;;;;;;;;;;;;;;5.10;55.02;101256.75;5017037;28;7170;-74
2023/03/03 04:07:55;;;;;;;;;;;;;;;5.08;55.46;101266.78;5024629;28;8483;-74
2023/03/03 04:10:20;;;;;;;;;;;;;;;5.08;55.84;101261.69;5012355;28;6973;-74
2023/03/03 04:12:46;;;;;;;;;;;;;;;5.09;55.17;101258.38;5026434;28;8438;-74
2023/03/03 04:15:14;;;;;;;;;;;;;;;5.08;55.49;101269.31;5014420;28;6843;-74
2023/03/03 04:17:40;;;;;;;;;;;;;;;5.10;55.53;101265.25;4999583;28;6792;-74
2023/03/03 04:20:09;;;;;;;;;;;;;;;5.09;54.94;101273.63;5021566;28;8732;-74
2023/03/03 04:22:35;;;;;;;;;;;;;;;5.08;55.14;101271.84;5000957;28;6823;-74
2023/03/03 04:25:04;;;;;;;;;;;;;;;5.09;55.79;101272.75;5003752;28;9918;-74
2023/03/03 04:27:35;;;;;;;;;;;;;;;5.09;55.52;101271.09;5007080;28;6827;-74
2023/03/03 04:30:03;;;;;;;;;;;;;;;5.12;55.12;101279.00;5024722;28;6804;-74
2023/03/03 04:32:29;;;;;;;;;;;;;;;5.14;55.47;101263.84;5001213;28;7311;-74
2023/03/03 04:34:55;;;;;;;;;;;;;;;5.14;55.86;101272.38;5013623;28;7162;-74
2023/03/03 04:37:20;;;;;;;;;;;;;;;5.15;55.69;101268.19;4992801;28;6970;-75
2023/03/03 04:39:46;;;;;;;;;;;;;;;5.16;55.54;101277.56;4988342;28;6822;-75
2023/03/03 04:42:12;;;;;;;;;;;;;;;5.18;55.21;101280.25;4991172;28;6954;-74
2023/03/03 04:44:38;;;;;;;;;;;;;;;5.19;55.77;101270.22;4998750;28;6872;-75
2023/03/03 04:47:03;;;;;;;;;;;;;;;5.22;55.39;101275.56;5002631;28;6768;-74
2023/03/03 04:49:29;;;;;;;;;;;;;;;5.24;55.86;101273.16;5006977;28;7347;-75
2023/03/03 04:51:55;;;;;;;;;;;;;;;5.25;55.06;101270.72;4992525;28;7226;-74
2023/03/03 04:54:21;;;;;;;;;;;;;;;5.29;55.81;101279.50;5010957;28;7178;-74
2023/03/03 04:56:46;;;;;;;;;;;;;;;5.30;55.46;101275.31;5011358;28;6935;-74
2023/03/03 04:59:12;;;;;;;;;;;;;;;5.30;55.22;101288.91;5003949;28;7139;-74
2023/03/03 05:01:38;;;;;;;;;;;;;;;5.29;55.08;101297.28;5014464;28;6852;-75
2023/03/03 05:04:04;;;;;;;;;;;;;;;5.27;55.09;101306.44;5005838;28;7247;-77
2023/03/03 05:06:29;;;;;;;;;;;;;;;5.26;54.87;101297.94;4994201;28;7199;-75
2023/03/03 05:08:55;;;;;;;;;;;;;;;5.26;54.99;101303.03;5020131;28;7214;-75
2023/03/03 05:11:21;;;;;;;;;;;;;;;5.26;54.88;101303.03;4996338;28;9681;-74
2023/03/03 05:13:46;;;;;;;;;;;;;;;5.27;54.87;101301.38;4998985;28;6952;-74
2023/03/03 05:16:12;;;;;;;;;;;;;;;5.26;55.08;101304.66;5028194;28;6946;-74
2023/03/03 05:18:38;;;;;;;;;;;;;;;5.28;55.07;101300.59;5012154;28;7646;-74
2023/03/03 05:21:03;;;;;;;;;;;;;;;5.27;55.13;101297.19;5014854;28;6780;-75
2023/03/03 05:23:30;;;;;;;;;;;;;;;5.30;55.65;101298.19;5009356;28;6871;-75
2023/03/03 05:25:55;;;;;;;;;;;;;;;5.31;55.09;101293.25;5010499;28;6895;-74
2023/03/03 05:28:21;;;;;;;;;;;;;;;5.34;55.40;101312.94;4994842;28;7040;-74
2023/03/03 05:30:47;;;;;;;;;;;;;;;5.35;55.28;101296.91;5017034;28;6775;-74
2023/03/03 05:33:15;;;;;;;;;;;;;;;5.36;55.12;101301.22;5026318;28;6850;-74
2023/03/03 05:35:41;;;;;;;;;;;;;;;5.36;55.34;101304.69;5013884;28;6792;-74
2023/03/03 05:38:07;;;;;;;;;;;;;;;5.38;55.04;101295.50;4997440;28;6843;-74
2023/03/03 05:40:33;;;;;;;;;;;;;;;5.38;55.46;101295.50;5003612;28;7205;-74
2023/03/03 05:42:58;;;;;;;;;;;;;;;5.41;55.15;101299.97;5013499;28;7228;-74
2023/03/03 05:45:24;;;;;;;;;;;;;;;5.41;54.78;101300.88;4998730;28;7030;-74
2023/03/03 05:47:51;;;;;;;;;;;;;;;5.41;54.66;101300.88;4994685;28;8431;-74
2023/03/03 05:50:19;;;;;;;;;;;;;;;5.41;54.72;101303.41;4993849;28;8487;-74
2023/03/03 05:52:48;;;;;;;;;;;;;;;5.41;54.91;101298.34;5008218;28;6811;-74
2023/03/03 05:55:13;;;;;;;;;;;;;;;5.42;54.90;101295.03;5028367;28;6988;-74
2023/03/03 05:57:39;;;;;;;;;;;;;;;5.42;54.96;101296.66;5029495;28;6804;-74
2023/03/03 06:00:07;;;;;;;;;;;;;;;5.41;55.35;101308.50;5011760;28;6967;-75
2023/03/03 06:02:33;;;;;;;;;;;;;;;5.41;54.69;101317.78;4993570;28;7058;-75
2023/03/03 06:04:59;;;;;;;;;;;;;;;5.42;54.69;101319.56;5007969;28;6940;-74
2023/03/03 06:07:25;;;;;;;;;;;;;;;5.40;54.93;101321.09;5004824;28;6780;-74
2023/03/03 06:09:51;;;;;;;;;;;;;;;5.40;55.17;101318.53;5007983;28;7152;-74
2023/03/03 06:12:16;;;;;;;;;;;;;;;5.39;54.72;101322.72;5011454;28;6811;-74
2023/03/03 06:14:42;;;;;;;;;;;;;;;5.38;55.13;101314.97;5003340;28;8208;-74
2023/03/03 06:17:08;;;;;;;;;;;;;;;5.36;54.86;101319.94;5012370;28;8554;-74
2023/03/03 06:19:33;;;;;;;;;;;;;;;5.35;55.22;101322.34;5016533;28;6771;-74
2023/03/03 06:21:59;;;;;;;;;;;;;;;5.35;55.23;101328.31;5010264;28;7143;-74
2023/03/03 06:24:29;;;;;;;;;;;;;;;5.35;55.22;101323.25;5011681;28;7138;-74
2023/03/03 06:26:59;;;;;;;;;;;;;;;5.37;54.75;101326.78;5008787;28;6807;-74
2023/03/03 06:29:26;;;;;;;;;;;;;;;5.37;54.88;101328.47;5011702;28;7215;-74
2023/03/03 06:31:51;;;;;;;;;;;;;;;5.35;55.04;101330.88;4999573;28;7189;-74
2023/03/03 06:34:17;;;;;;;;;;;;;;;5.34;55.43;101336.72;5010300;28;7912;-74
2023/03/03 06:36:43;;;;;;;;;;;;;;;5.34;55.44;101334.19;5001518;28;6797;-74
2023/03/03 06:39:09;;;;;;;;;;;;;;;5.33;55.43;101328.94;4998950;28;10201;-74
2023/03/03 06:41:34;;;;;;;;;;;;;;;5.33;55.58;101328.94;5009980;28;8543;-74
2023/03/03 06:44:00;;;;;;;;;;;;;;;5.36;55.12;101334.28;4996014;28;8551;-74
2023/03/03 06:46:26;;;;;;;;;;;;;;;5.38;55.30;101341.28;5008463;28;7394;-74
2023/03/03 06:48:52;;;;;;;;;;;;;;;5.39;55.47;101340.50;5015048;28;6994;-74
2023/03/03 06:51:28;;;;;;;;;;;;;;;5.41;54.83;101345.75;5006608;28;6962;-74
2023/03/03 06:53:58;;;;;;;;;;;;;;;5.40;55.04;101355.00;5029071;28;6842;-74
2023/03/03 06:56:26;;;;;;;;;;;;;;;5.39;55.07;101357.44;5015205;28;6875;-74
2023/03/03 06:59:01;;;;;;;;;;;;;;;5.34;55.58;101362.13;5011456;28;7047;-74
2023/03/03 07:01:36;;;;;;;;;;;;;;;5.35;54.98;101370.63;5010673;28;6943;-74
2023/03/03 07:04:32;;;;;;;;;;;;;;;5.33;55.21;101370.53;5008655;28;6812;-74
2023/03/03 07:07:15;;;;;;;;;;;;;;;5.34;54.84;101372.31;5013912;28;6819;-74
2023/03/03 07:09:48;;;;;;;;;;;;;;;5.33;55.05;101378.16;5015343;28;6812;-74
2023/03/03 07:12:29;;;;;;;;;;;;;;;5.34;55.20;101382.47;5012221;28;6863;-74
2023/03/03 07:15:16;;;;;;;;;;;;;;;5.31;55.00;101384.78;5007696;28;8880;-74
2023/03/03 07:17:49;;;;;;;;;;;;;;;5.30;55.36;101382.09;5013243;28;7282;-74
2023/03/03 07:20:32;;;;;;;;;;;;;;;5.28;55.43;101381.94;5026944;28;6927;-74
2023/03/03 07:22:59;;;;;;;;;;;;;;;5.30;55.16;101399.88;5002635;28;7352;-74
2023/03/03 07:25:36;;;;;;;;;;;;;;;5.29;55.06;101393.88;5008456;28;7130;-74
2023/03/03 07:28:26;;;;;;;;;;;;;;;5.28;55.06;101397.19;4992537;28;7057;-74
2023/03/03 07:30:54;;;;;;;;;;;;;;;5.28;55.12;101398.09;5026461;28;7238;-74
2023/03/03 07:33:42;;;;;;;;;;;;;;;5.28;55.80;101405.72;5015720;28;7208;-74
2023/03/03 07:36:29;;;;;;;;;;;;;;;5.28;55.50;101397.19;5022041;28;6823;-74
2023/03/03 07:39:30;;;;;;;;;;;;;;;5.27;55.58;101411.56;5008612;28;7079;-74
2023/03/03 07:42:26;;;;;;;;;;;;;;;5.26;55.30;101408.88;4999251;28;7260;-74
2023/03/03 07:44:56;;;;;;;;;;;;;;;5.27;55.29;101410.66;5012380;28;6808;-74
2023/03/03 07:47:34;;;;;;;;;;;;;;;5.30;55.86;101413.47;5012182;28;6883;-74
2023/03/03 07:50:18;;;;;;;;;;;;;;;5.32;55.23;101413.59;5012499;28;7299;-74
2023/03/03 07:52:59;;;;;;;;;;;;;;;5.34;55.18;101433.31;5001564;28;8047;-74
2023/03/03 07:55:38;;;;;;;;;;;;;;;5.33;55.46;101431.53;5021887;28;7259;-74
2023/03/03 07:58:34;;;;;;;;;;;;;;;5.37;56.00;101430.16;5002176;28;9198;-74
2023/03/03 08:01:38;;;;;;;;;;;;;;;5.39;55.20;101436.25;5011815;28;6823;-74
2023/03/03 08:04:17;;;;;;;;;;;;;;;5.36;55.13;101431.78;5008936;28;6796;-74
2023/03/03 08:06:55;;;;;;;;;;;;;;;5.38;55.03;101431.94;5007873;28;6916;-74
2023/03/03 08:09:43;;;;;;;;;;;;;;;5.41;55.64;101440.72;4996350;28;7392;-74
2023/03/03 08:12:21;;;;;;;;;;;;;;;5.46;55.02;101437.66;5028157;28;6819;-74
2023/03/03 08:14:52;;;;;;;;;;;;;;;5.49;55.55;101441.38;5008064;28;7058;-74
2023/03/03 08:17:38;;;;;;;;;;;;;;;5.52;55.22;101440.75;5027004;28;8270;-74
2023/03/03 08:20:45;;;;;;;;;;;;;;;5.54;55.16;101451.94;5008650;28;6876;-74
2023/03/03 08:23:14;;;;;;;;;;;;;;;5.53;54.85;101443.41;5012845;28;6888;-74
2023/03/03 08:25:42;;;;;;;;;;;;;;;5.55;54.99;101447.00;5025696;28;6803;-74
2023/03/03 08:28:10;;;;;;;;;;;;;;;5.60;55.10;101456.66;5009610;28;7200;-74
2023/03/03 08:30:35;;;;;;;;;;;;;;;5.65;55.01;101456.28;5006740;28;6784;-74
2023/03/03 08:33:01;;;;;;;;;;;;;;;5.69;54.79;101448.13;5009729;28;8138;-74
2023/03/03 08:35:27;;;;;;;;;;;;;;;5.71;54.52;101448.25;4988883;28;7129;-74
2023/03/03 08:37:53;;;;;;;;;;;;;;;5.72;54.86;101459.34;5008999;28;6775;-74
2023/03/03 08:40:18;;;;;;;;;;;;;;;5.70;54.97;101460.13;5006648;28;6851;-74
2023/03/03 08:42:44;;;;;;;;;;;;;;;5.69;54.93;101457.44;5005287;28;6772;-74
2023/03/03 08:45:10;;;;;;;;;;;;;;;5.67;54.82;101464.03;5011778;28;6847;-74
2023/03/03 08:47:35;;;;;;;;;;;;;;;5.69;55.10;101471.03;5032331;28;6776;-74
2023/03/03 08:50:01;;;;;;;;;;;;;;;5.72;54.92;101466.97;5015255;28;7929;-74
2023/03/03 08:52:26;;;;;;;;;;;;;;;5.75;55.02;101468.13;5018339;28;6831;-74
2023/03/03 08:54:53;;;;;;;;;;;;;;;5.82;54.54;101472.09;5017496;28;6788;-74
2023/03/03 08:57:18;;;;;;;;;;;;;;;5.87;54.72;101477.56;5024998;28;6954;-74
2023/03/03 08:59:46;;;;;;;;;;;;;;;5.93;54.43;101484.06;5009884;28;7485;-74
2023/03/03 09:02:12;;;;;;;;;;;;;;;5.98;53.62;101480.22;5028964;28;6847;-74
2023/03/03 09:04:38;;;;;;;;;;;;;;;6.02;54.05;101483.94;5001362;28;8429;-74
2023/03/03 09:07:04;;;;;;;;;;;;;;;6.05;54.64;101485.88;5013603;28;6775;-74
2023/03/03 09:09:29;;;;;;;;;;;;;;;6.08;53.84;101491.22;5034075;28;6780;-74
2023/03/03 09:12:01;;;;;;;;;;;;;;;6.10;54.23;101495.66;5030591;28;7220;-74
2023/03/03 09:14:28;;;;;;;;;;;;;;;6.15;53.83;101488.41;5010198;28;6851;-75
2023/03/03 09:16:56;;;;;;;;;;;;;;;6.20;54.07;101489.72;5011022;28;6805;-74
2023/03/03 09:19:35;;;;;;;;;;;;;;;6.22;53.73;101493.25;5008627;28;6788;-74
2023/03/03 09:22:24;;;;;;;;;;;;;;;6.20;53.66;101504.97;5005322;28;6792;-74
2023/03/03 09:24:55;;;;;;;;;;;;;;;6.18;53.62;101510.69;5010330;28;7254;-75
2023/03/03 09:27:28;;;;;;;;;;;;;;;6.18;53.82;101509.06;5002373;28;7081;-75
2023/03/03 09:29:56;;;;;;;;;;;;;;;6.21;53.73;101509.31;5002088;28;7020;-75
2023/03/03 09:32:38;;;;;;;;;;;;;;;6.25;53.79;101507.91;5008224;28;6968;-75
2023/03/03 09:35:39;;;;;;;;;;;;;;;6.27;53.68;101502.94;4995455;28;7305;-75
2023/03/03 09:38:31;;;;;;;;;;;;;;;6.26;53.28;101504.59;4978708;28;7237;-75
2023/03/03 09:41:12;;;;;;;;;;;;;;;6.28;53.44;101508.16;4992088;28;7301;-75
2023/03/03 09:44:15;;;;;;;;;;;;;;;6.32;53.79;101501.66;5017215;28;7004;-75
2023/03/03 09:47:07;;;;;;;;;;;;;;;6.34;53.28;101505.22;5014748;28;6984;-75
2023/03/03 09:51:11;;;;;;;;;;;;;;;6.29;53.66;101506.50;5029463;22;6706;-76
2023/03/03 09:54:13;;;;;;;;;;;;;;;6.39;53.60;101509.94;4959277;28;7164;-75
2023/03/03 09:57:04;;;;;;;;;;;;;;;6.49;53.19;101496.31;4974514;28;7419;-76
2023/03/03 09:59:45;;;;;;;;;;;;;;;6.55;53.37;101497.56;4998149;28;8426;-75
2023/03/03 10:02:37;;;;;;;;;;;;;;;6.57;52.84;101498.56;4967253;28;7058;-76
2023/03/03 10:05:33;;;;;;;;;;;;;;;6.60;52.35;101509.91;4979514;28;8615;-76
2023/03/03 10:08:39;;;;;;;;;;;;;;;6.62;52.52;101513.50;4984413;28;7034;-76
2023/03/03 10:11:31;;;;;;;;;;;;;;;6.68;52.42;101513.09;4948863;28;7313;-76
2023/03/03 10:14:19;;;;;;;;;;;;;;;6.72;52.52;101512.56;4960403;28;6987;-76
2023/03/03 10:17:13;;;;;;;;;;;;;;;6.77;52.98;101516.41;4952194;28;8485;-76
2023/03/03 10:19:54;;;;;;;;;;;;;;;6.81;52.43;101518.41;4957348;28;8486;-76
2023/03/03 10:22:51;;;;;;;;;;;;;;;6.84;52.56;101517.78;4968131;28;7326;-76
2023/03/03 10:25:41;;;;;;;;;;;;;;;6.88;52.44;101518.94;4949462;28;7027;-76
2023/03/03 10:29:15;;;;;;;;;;;;;;;6.87;52.26;101529.91;4952644;28;6831;-76
2023/03/03 10:32:22;;;;;;;;;;;;;;;6.86;52.55;101525.56;4947552;28;7333;-76
2023/03/03 10:35:07;;;;;;;;;;;;;;;6.90;51.91;101527.59;4962129;28;8758;-76
2023/03/03 10:38:03;;;;;;;;;;;;;;;6.95;52.14;101529.72;4975518;28;7158;-76
2023/03/03 10:41:03;;;;;;;;;;;;;;;7.00;51.91;101525.00;4947944;28;8860;-76
2023/03/03 10:44:03;;;;;;;;;;;;;;;7.03;52.40;101522.69;4973446;28;6989;-75
2023/03/03 10:46:54;;;;;;;;;;;;;;;7.07;51.98;101522.19;4953995;28;7122;-76
2023/03/03 10:50:27;;;;;;;;;;;;;;;7.15;51.49;101514.28;4961798;28;7007;-76
2023/03/03 10:53:28;;;;;;;;;;;;;;;7.19;51.73;101512.06;4944761;28;7005;-76
2023/03/03 10:56:28;;;;;;;;;;;;;;;7.28;51.95;101517.00;4953286;28;7213;-76
2023/03/03 10:59:30;;;;;;;;;;;;;;;7.27;51.86;101515.25;4953513;28;10597;-76
2023/03/03 11:02:05;;;;;;;;;;;;;;;7.28;51.40;101514.47;4944097;28;6844;-75
2023/03/03 11:04:49;;;;;;;;;;;;;;;7.30;51.60;101525.66;4954288;28;8289;-76
2023/03/03 11:07:38;;;;;;;;;;;;;;;7.32;51.62;101518.16;4955378;28;7253;-76
2023/03/03 11:10:29;;;;;;;;;;;;;;;7.35;50.77;101523.47;4954357;28;6888;-76
2023/03/03 11:13:10;;;;;;;;;;;;;;;7.34;50.61;101526.81;4935674;28;7014;-76
2023/03/03 11:16:03;;;;;;;;;;;;;;;7.35;50.68;101526.94;4947755;28;7739;-76
2023/03/03 11:19:00;;;;;;;;;;;;;;;7.38;50.76;101527.94;4957124;28;8536;-76
2023/03/03 11:21:46;;;;;;;;;;;;;;;7.38;50.47;101523.72;4946544;28;6884;-76
2023/03/03 11:25:02;;;;;;;;;;;;;;;7.41;51.43;101518.88;4932757;28;8500;-75
2023/03/03 11:27:55;;;;;;;;;;;;;;;7.43;51.20;101517.34;4949284;28;7014;-76
2023/03/03 11:31:18;;;;;;;;;;;;;;;7.47;51.01;101515.91;4950831;28;8091;-76
2023/03/03 11:33:59;;;;;;;;;;;;;;;7.45;51.10;101525.13;4955074;28;6816;-76
2023/03/03 11:36:42;;;;;;;;;;;;;;;7.48;51.01;101512.59;4955670;28;6808;-76
2023/03/03 11:39:18;;;;;;;;;;;;;;;7.55;50.65;101526.72;4940388;28;6800;-76
2023/03/03 11:42:17;;;;;;;;;;;;;;;7.61;50.94;101520.41;4940357;28;6796;-76
2023/03/03 11:45:02;;;;;;;;;;;;;;;7.70;51.08;101517.72;4943178;28;7095;-76
2023/03/03 11:48:07;;;;;;;;;;;;;;;7.77;50.77;101516.53;4917313;28;7379;-76
2023/03/03 11:50:51;;;;;;;;;;;;;;;7.81;50.99;101521.06;4959850;28;8557;-76
2023/03/03 11:53:46;;;;;;;;;;;;;;;7.88;50.41;101518.22;4960963;28;7015;-76
2023/03/03 11:56:39;;;;;;;;;;;;;;;7.92;50.39;101522.81;4928228;28;7790;-76
2023/03/03 11:59:46;;;;;;;;;;;;;;;7.95;50.16;101518.72;4952868;28;7261;-76
2023/03/03 12:02:42;;;;;;;;;;;;;;;7.98;49.40;101519.84;4937125;28;7363;-76
2023/03/03 12:05:47;;;;;;;;;;;;;;;7.96;48.97;101517.94;4951902;28;7873;-76
2023/03/03 12:09:00;;;;;;;;;;;;;;;7.95;49.54;101511.06;4951147;28;6828;-76
2023/03/03 12:12:24;;;;;;;;;;;;;;;7.98;49.73;101507.06;4968346;28;6835;-76
2023/03/03 12:15:16;;;;;;;;;;;;;;;8.02;48.81;101501.41;4964395;28;8467;-76
2023/03/03 12:18:26;;;;;;;;;;;;;;;8.13;49.36;101499.69;4946834;28;7325;-76
2023/03/03 12:21:42;;;;;;;;;;;;;;;8.25;49.15;101497.16;4920206;28;7211;-76
2023/03/03 12:24:40;;;;;;;;;;;;;;;8.35;49.03;101488.50;4960532;28;7004;-76
2023/03/03 12:27:56;;;;;;;;;;;;;;;8.42;48.47;101488.22;4955880;28;7861;-76
2023/03/03 12:31:00;;;;;;;;;;;;;;;8.46;49.09;101489.31;4947702;28;8685;-76
2023/03/03 12:33:55;;;;;;;;;;;;;;;8.61;48.71;101484.50;4948756;28;6800;-76
2023/03/03 12:36:45;;;;;;;;;;;;;;;8.67;48.04;101484.91;4973006;28;6974;-76
2023/03/03 12:39:32;;;;;;;;;;;;;;;8.70;48.10;101479.16;4943555;28;7209;-76
2023/03/03 12:42:13;;;;;;;;;;;;;;;8.71;48.34;101476.72;4951086;28;7078;-76
2023/03/03 12:45:17;;;;;;;;;;;;;;;8.75;47.36;101477.81;4936674;28;6807;-76
2023/03/03 12:47:50;;;;;;;;;;;;;;;8.87;48.84;101477.81;4953967;28;7056;-76
2023/03/03 12:50:30;;;;;;;;;;;;;;;9.00;48.28;101480.47;4969184;28;7200;-76
2023/03/03 12:53:43;;;;;;;;;;;;;;;9.06;47.85;101479.13;4950015;28;7245;-76
2023/03/03 12:56:13;;;;;;;;;;;;;;;9.04;48.07;101476.47;4950383;28;7251;-76
2023/03/03 12:59:10;;;;;;;;;;;;;;;9.07;46.74;101478.34;4961510;28;8337;-76
2023/03/03 13:02:25;;;;;;;;;;;;;;;9.05;46.58;101479.91;4954504;28;6800;-76
2023/03/03 13:05:26;;;;;;;;;;;;;;;8.97;47.08;101480.25;4951689;28;7225;-76
2023/03/03 13:08:35;;;;;;;;;;;;;;;8.84;46.22;101482.72;4961102;28;6994;-76
2023/03/03 13:11:27;;;;;;;;;;;;;;;8.72;47.19;101482.69;4939189;28;7006;-76
2023/03/03 13:14:34;;;;;;;;;;;;;;;8.69;47.75;101482.47;4974443;28;7287;-76
2023/03/03 13:17:20;;;;;;;;;;;;;;;8.67;47.11;101479.81;4944375;28;6841;-76
2023/03/03 13:20:25;;;;;;;;;;;;;;;8.66;47.26;101480.59;4944833;28;6804;-76
2023/03/03 13:23:23;;;;;;;;;;;;;;;8.66;47.62;101478.03;4937760;28;6804;-76
2023/03/03 13:26:15;;;;;;;;;;;;;;;8.69;47.95;101482.47;4959517;28;7415;-76
2023/03/03 13:29:33;;;;;;;;;;;;;;;8.70;46.67;101480.06;4954018;28;6808;-76
2023/03/03 13:32:10;;;;;;;;;;;;;;;8.69;47.31;101478.28;4944194;28;6804;-76
2023/03/03 13:35:09;;;;;;;;;;;;;;;8.69;47.39;101478.28;4950815;28;6808;-76
2023/03/03 13:37:43;;;;;;;;;;;;;;;8.68;47.38;101478.16;4942751;28;6808;-76
2023/03/03 13:40:11;;;;;;;;;;;;;;;8.70;47.50;101467.28;4978685;28;7210;-76
2023/03/03 13:43:07;;;;;;;;;;;;;;;8.68;46.67;101466.25;4951569;28;6867;-76
2023/03/03 13:46:04;;;;;;;;;;;;;;;8.67;46.99;101468.72;4944564;28;7220;-76
2023/03/03 13:49:09;;;;;;;;;;;;;;;8.67;47.20;101466.16;4946296;28;6808;-76
2023/03/03 13:52:10;;;;;;;;;;;;;;;8.66;47.22;101464.38;4956381;28;8467;-76
2023/03/03 13:55:25;;;;;;;;;;;;;;;8.69;46.61;101462.94;4971000;28;7095;-76